createdAt,value
2017-11-25T00:01:57.930Z,100690.64
2017-11-25T00:04:42.684Z,100693.19
2017-11-25T00:07:26.274Z,100689.38
2017-11-25T00:10:07.192Z,100698.23
2017-11-25T00:12:51.597Z,100698.63
2017-11-25T00:15:36.857Z,100701.13
2017-11-25T00:18:20.267Z,100695.61
2017-11-25T00:21:17.530Z,100697.25
2017-11-25T00:26:53.176Z,100687.89
2017-11-25T00:29:22.470Z,100676.41
2017-11-25T00:31:51.325Z,100674.23
2017-11-25T00:34:19.852Z,100673.78
2017-11-25T00:36:48.412Z,100668.66
2017-11-25T00:39:17.065Z,100663.11
2017-11-25T00:41:45.865Z,100657.58
2017-11-25T00:44:14.566Z,100656.26
2017-11-25T00:46:43.213Z,100657.48
2017-11-25T00:49:11.930Z,100651.96
2017-11-25T00:51:40.585Z,100656.16
2017-11-25T00:54:09.292Z,100654.42
2017-11-25T00:56:37.934Z,100656.95
2017-11-25T00:59:06.598Z,100656.91
2017-11-25T01:01:35.296Z,100660.70
2017-11-25T01:04:04.008Z,100659.86
2017-11-25T01:06:32.668Z,100661.55
2017-11-25T01:09:01.368Z,100661.94
2017-11-25T01:11:30.032Z,100653.84
2017-11-25T01:13:58.722Z,100664.00
2017-11-25T01:16:27.410Z,100656.34
2017-11-25T01:18:56.054Z,100652.52
2017-11-25T01:21:24.752Z,100653.72
2017-11-25T01:23:53.509Z,100654.14
2017-11-25T01:26:22.204Z,100652.41
2017-11-25T01:28:50.916Z,100651.97
2017-11-25T01:31:19.571Z,100649.41
2017-11-25T01:33:48.305Z,100643.00
2017-11-25T01:36:16.996Z,100640.00
2017-11-25T01:38:45.692Z,100637.44
2017-11-25T01:41:14.375Z,100633.18
2017-11-25T01:43:42.942Z,100632.26
2017-11-25T01:46:11.647Z,100628.00
2017-11-25T01:48:40.328Z,100632.23
2017-11-25T01:51:08.901Z,100628.35
2017-11-25T01:53:37.392Z,100630.04
2017-11-25T01:56:06.090Z,100622.39
2017-11-25T01:58:34.620Z,100630.84
2017-11-25T02:01:03.301Z,100626.98
2017-11-25T02:03:31.986Z,100628.23
2017-11-25T02:06:00.685Z,100623.92
2017-11-25T02:08:29.357Z,100622.66
2017-11-25T02:10:58.101Z,100620.04
2017-11-25T02:13:26.761Z,100619.60
2017-11-25T02:15:55.133Z,100622.95
2017-11-25T02:18:23.895Z,100612.34
2017-11-25T02:20:52.238Z,100615.75
2017-11-25T02:23:24.452Z,100613.59
2017-11-25T02:25:53.165Z,100607.65
2017-11-25T02:28:21.577Z,100609.34
2017-11-25T02:30:49.932Z,100607.63
2017-11-25T02:33:18.379Z,100597.39
2017-11-25T02:35:47.125Z,100597.81
2017-11-25T02:38:15.805Z,100594.85
2017-11-25T02:40:44.250Z,100594.41
2017-11-25T02:43:12.706Z,100604.98
2017-11-25T02:45:41.442Z,100602.00
2017-11-25T02:48:10.151Z,100599.87
2017-11-25T02:50:38.839Z,100603.70
2017-11-25T02:53:07.587Z,100600.69
2017-11-25T02:55:36.261Z,100598.55
2017-11-25T02:58:04.659Z,100593.86
2017-11-25T03:00:33.400Z,100588.33
2017-11-25T03:03:02.058Z,100583.19
2017-11-25T03:05:30.413Z,100578.96
2017-11-25T03:07:59.156Z,100570.47
2017-11-25T03:10:27.509Z,100559.41
2017-11-25T03:12:56.188Z,100558.59
2017-11-25T03:15:24.943Z,100559.43
2017-11-25T03:17:53.694Z,100547.53
2017-11-25T03:20:22.385Z,100550.89
2017-11-25T03:22:51.087Z,100556.38
2017-11-25T03:25:19.645Z,100553.41
2017-11-25T03:27:48.280Z,100557.59
2017-11-25T03:30:16.958Z,100554.64
2017-11-25T03:32:45.666Z,100554.61
2017-11-25T03:35:14.188Z,100549.95
2017-11-25T03:37:42.743Z,100552.06
2017-11-25T03:40:11.455Z,100550.33
2017-11-25T03:42:40.185Z,100547.78
2017-11-25T03:45:08.881Z,100542.30
2017-11-25T03:47:37.567Z,100534.19
2017-11-25T03:50:06.341Z,100532.90
2017-11-25T03:52:35.048Z,100532.45
2017-11-25T03:55:03.793Z,100523.96
2017-11-25T03:57:32.508Z,100522.25
2017-11-25T04:00:01.174Z,100521.37
2017-11-25T04:02:29.854Z,100510.33
2017-11-25T04:04:58.597Z,100507.36
2017-11-25T04:07:27.307Z,100514.56
2017-11-25T04:09:55.979Z,100512.84
2017-11-25T04:12:24.793Z,100511.16
2017-11-25T04:14:53.489Z,100508.62
2017-11-25T04:17:22.140Z,100499.30
2017-11-25T04:19:50.847Z,100495.02
2017-11-25T04:22:19.514Z,100486.95
2017-11-25T04:24:48.172Z,100486.95
2017-11-25T04:27:16.875Z,100484.84
2017-11-25T04:29:45.549Z,100475.89
2017-11-25T04:32:14.332Z,100472.53
2017-11-25T04:34:42.979Z,100480.59
2017-11-25T04:37:11.614Z,100482.27
2017-11-25T04:39:40.295Z,100478.41
2017-11-25T04:42:08.957Z,100475.03
2017-11-25T04:44:37.613Z,100466.09
2017-11-25T04:47:06.305Z,100461.83
2017-11-25T04:49:34.970Z,100460.53
2017-11-25T04:52:03.698Z,100450.81
2017-11-25T04:54:35.647Z,100440.16
2017-11-25T04:57:20.156Z,100440.66
2017-11-25T04:59:50.788Z,100447.83
2017-11-25T05:02:21.254Z,100436.37
2017-11-25T05:04:52.120Z,100429.56
2017-11-25T05:07:24.403Z,100432.08
2017-11-25T05:09:58.340Z,100434.21
2017-11-25T05:12:31.396Z,100433.37
2017-11-25T05:15:02.574Z,100426.16
2017-11-25T05:17:32.251Z,100419.80
2017-11-25T05:20:01.187Z,100406.20
2017-11-25T05:22:30.593Z,100408.72
2017-11-25T05:24:59.689Z,100407.87
2017-11-25T05:27:30.103Z,100406.56
2017-11-25T05:29:58.756Z,100405.73
2017-11-25T05:32:27.268Z,100401.47
2017-11-25T05:34:56.005Z,100395.55
2017-11-25T05:37:24.712Z,100401.50
2017-11-25T05:39:53.374Z,100402.80
2017-11-25T05:42:21.925Z,100412.08
2017-11-25T05:44:50.611Z,100409.55
2017-11-25T05:47:19.266Z,100408.30
2017-11-25T05:49:48.001Z,100403.19
2017-11-25T05:52:16.730Z,100396.38
2017-11-25T05:54:45.363Z,100394.28
2017-11-25T05:57:14.087Z,100396.44
2017-11-25T05:59:42.787Z,100406.59
2017-11-25T06:02:11.581Z,100407.45
2017-11-25T06:04:40.236Z,100405.77
2017-11-25T06:07:08.934Z,100405.32
2017-11-25T06:09:37.627Z,100400.23
2017-11-25T06:12:06.260Z,100398.07
2017-11-25T06:14:34.951Z,100404.88
2017-11-25T06:17:03.586Z,100405.68
2017-11-25T06:19:32.237Z,100406.59
2017-11-25T06:22:00.953Z,100415.09
2017-11-25T06:24:29.609Z,100412.55
2017-11-25T06:26:58.349Z,100413.81
2017-11-25T06:29:27.009Z,100417.17
2017-11-25T06:31:55.583Z,100418.02
2017-11-25T06:34:24.102Z,100415.89
2017-11-25T06:36:52.620Z,100411.22
2017-11-25T06:39:21.186Z,100416.31
2017-11-25T06:41:49.701Z,100420.63
2017-11-25T06:44:18.209Z,100433.33
2017-11-25T06:46:46.775Z,100436.29
2017-11-25T06:49:15.447Z,100431.20
2017-11-25T06:51:44.094Z,100435.05
2017-11-25T06:54:12.808Z,100431.61
2017-11-25T06:56:42.382Z,100427.81
2017-11-25T06:59:11.884Z,100426.98
2017-11-25T07:01:41.139Z,100416.80
2017-11-25T07:04:09.873Z,100416.34
2017-11-25T07:06:38.521Z,100415.50
2017-11-25T07:09:07.267Z,100415.55
2017-11-25T07:11:35.938Z,100422.31
2017-11-25T07:14:04.639Z,100423.59
2017-11-25T07:16:33.356Z,100418.94
2017-11-25T07:19:06.161Z,100427.02
2017-11-25T07:21:34.880Z,100419.34
2017-11-25T07:24:03.567Z,100410.88
2017-11-25T07:26:32.374Z,100413.42
2017-11-25T07:29:01.076Z,100410.88
2017-11-25T07:31:38.808Z,100412.12
2017-11-25T07:34:15.933Z,100416.86
2017-11-25T07:36:55.759Z,100419.34
2017-11-25T07:39:30.373Z,100423.17
2017-11-25T07:42:07.974Z,100424.00
2017-11-25T07:44:44.493Z,100419.34
2017-11-25T07:49:57.274Z,100417.64
2017-11-25T07:52:40.262Z,100422.36
2017-11-25T07:55:21.140Z,100410.07
2017-11-25T07:57:59.453Z,100409.27
2017-11-25T08:00:40.898Z,100398.20
2017-11-25T08:03:24.122Z,100399.89
2017-11-25T08:05:59.517Z,100401.55
2017-11-25T08:08:33.087Z,100403.66
2017-11-25T08:11:14.123Z,100404.13
2017-11-25T08:13:57.134Z,100410.93
2017-11-25T08:16:35.731Z,100414.72
2017-11-25T08:19:13.334Z,100416.88
2017-11-25T08:21:52.812Z,100426.58
2017-11-25T08:24:28.599Z,100417.19
2017-11-25T08:27:03.485Z,100404.56
2017-11-25T08:29:41.495Z,100406.17
2017-11-25T08:32:17.926Z,100408.70
2017-11-25T08:34:58.796Z,100414.20
2017-11-25T08:37:28.062Z,100428.21
2017-11-25T08:39:59.011Z,100424.36
2017-11-25T08:42:27.760Z,100426.88
2017-11-25T08:44:56.407Z,100430.34
2017-11-25T08:47:25.090Z,100431.09
2017-11-25T08:50:00.508Z,100433.22
2017-11-25T08:52:33.934Z,100419.66
2017-11-25T08:55:12.665Z,100415.81
2017-11-25T08:57:49.876Z,100422.55
2017-11-25T09:00:26.373Z,100430.23
2017-11-25T09:03:08.957Z,100425.95
2017-11-25T09:05:47.404Z,100434.52
2017-11-25T09:08:23.015Z,100440.39
2017-11-25T09:11:03.504Z,100431.95
2017-11-25T09:13:40.763Z,100433.69
2017-11-25T09:16:22.087Z,100439.74
2017-11-25T09:18:59.200Z,100450.24
2017-11-25T09:21:39.213Z,100456.22
2017-11-25T09:24:19.458Z,100450.30
2017-11-25T09:26:55.728Z,100452.34
2017-11-25T09:29:34.386Z,100441.28
2017-11-25T09:32:10.523Z,100439.10
2017-11-25T09:34:47.710Z,100442.48
2017-11-25T09:37:24.996Z,100448.41
2017-11-25T09:40:05.560Z,100447.08
2017-11-25T09:42:46.617Z,100442.02
2017-11-25T09:48:07.599Z,100445.59
2017-11-25T09:50:44.436Z,100445.16
2017-11-25T09:53:30.549Z,100434.24
2017-11-25T09:56:07.261Z,100432.08
2017-11-25T09:58:49.637Z,100432.01
2017-11-25T10:01:26.938Z,100435.36
2017-11-25T10:04:09.057Z,100427.72
2017-11-25T10:06:44.447Z,100431.98
2017-11-25T10:09:22.431Z,100424.31
2017-11-25T10:11:59.704Z,100428.50
2017-11-25T10:14:34.314Z,100426.34
2017-11-25T10:17:08.849Z,100427.62
2017-11-25T10:19:40.155Z,100427.20
2017-11-25T10:22:11.457Z,100428.06
2017-11-25T10:24:44.657Z,100425.12
2017-11-25T10:27:16.865Z,100423.87
2017-11-25T10:29:57.692Z,100425.09
2017-11-25T10:32:29.480Z,100429.34
2017-11-25T10:34:58.202Z,100426.84
2017-11-25T10:37:26.705Z,100424.23
2017-11-25T10:39:55.439Z,100417.84
2017-11-25T10:42:24.053Z,100429.25
2017-11-25T10:44:52.592Z,100422.83
2017-11-25T10:47:21.465Z,100421.11
2017-11-25T10:49:49.976Z,100424.16
2017-11-25T10:52:18.517Z,100421.11
2017-11-25T10:54:47.201Z,100412.59
2017-11-25T10:57:15.860Z,100416.75
2017-11-25T10:59:44.507Z,100411.65
2017-11-25T11:02:13.394Z,100411.60
2017-11-25T11:04:56.061Z,100411.62
2017-11-25T11:07:24.853Z,100414.61
2017-11-25T11:09:53.561Z,100411.16
2017-11-25T11:12:22.208Z,100408.97
2017-11-25T11:14:50.916Z,100413.27
2017-11-25T11:17:19.621Z,100411.52
2017-11-25T11:19:48.295Z,100411.21
2017-11-25T11:22:17.008Z,100409.91
2017-11-25T11:24:45.662Z,100410.88
2017-11-25T11:27:14.381Z,100406.06
2017-11-25T11:29:43.024Z,100409.39
2017-11-25T11:32:11.721Z,100408.92
2017-11-25T11:34:40.408Z,100408.03
2017-11-25T11:37:09.125Z,100404.59
2017-11-25T11:39:37.797Z,100401.17
2017-11-25T11:42:06.480Z,100406.65
2017-11-25T11:44:35.198Z,100403.27
2017-11-25T11:47:03.842Z,100403.72
2017-11-25T11:49:32.548Z,100402.02
2017-11-25T11:52:01.325Z,100400.72
2017-11-25T11:54:29.970Z,100401.58
2017-11-25T11:56:59.576Z,100410.91
2017-11-25T11:59:28.309Z,100407.13
2017-11-25T12:01:56.853Z,100405.52
2017-11-25T12:04:25.711Z,100407.14
2017-11-25T12:06:54.432Z,100405.54
2017-11-25T12:09:23.085Z,100402.11
2017-11-25T12:11:51.585Z,100401.66
2017-11-25T12:14:20.291Z,100404.96
2017-11-25T12:16:49.012Z,100401.52
2017-11-25T12:19:17.674Z,100404.94
2017-11-25T12:21:46.395Z,100402.83
2017-11-25T12:24:15.109Z,100402.80
2017-11-25T12:26:43.851Z,100407.43
2017-11-25T12:29:12.576Z,100409.28
2017-11-25T12:31:41.300Z,100409.67
2017-11-25T12:34:10.004Z,100402.00
2017-11-25T12:36:38.524Z,100405.82
2017-11-25T12:39:07.087Z,100408.37
2017-11-25T12:41:35.907Z,100403.66
2017-11-25T12:44:04.704Z,100398.93
2017-11-25T12:46:34.141Z,100409.45
2017-11-25T12:49:02.722Z,100411.53
2017-11-25T12:51:31.302Z,100409.51
2017-11-25T12:53:59.864Z,100404.41
2017-11-25T12:56:28.572Z,100407.38
2017-11-25T12:58:57.357Z,100412.11
2017-11-25T13:01:26.049Z,100411.61
2017-11-25T13:03:54.862Z,100420.92
2017-11-25T13:06:23.573Z,100428.98
2017-11-25T13:08:52.236Z,100428.20
2017-11-25T13:11:20.952Z,100431.22
2017-11-25T13:13:49.709Z,100437.62
2017-11-25T13:16:18.501Z,100431.64
2017-11-25T13:18:47.158Z,100430.44
2017-11-25T13:21:15.898Z,100427.01
2017-11-25T13:23:44.584Z,100424.88
2017-11-25T13:26:13.248Z,100426.13
2017-11-25T13:28:42.153Z,100432.11
2017-11-25T13:31:10.830Z,100438.86
2017-11-25T13:33:39.481Z,100435.91
2017-11-25T13:36:08.186Z,100448.56
2017-11-25T13:38:37.234Z,100439.64
2017-11-25T13:41:05.944Z,100437.62
2017-11-25T13:43:34.686Z,100439.74
2017-11-25T13:46:03.225Z,100435.51
2017-11-25T13:48:31.787Z,100434.65
2017-11-25T13:51:00.369Z,100430.08
2017-11-25T13:53:29.110Z,100424.98
2017-11-25T13:55:59.564Z,100428.05
2017-11-25T13:58:28.191Z,100430.19
2017-11-25T14:00:56.946Z,100433.67
2017-11-25T14:03:25.829Z,100432.45
2017-11-25T14:05:54.549Z,100432.11
2017-11-25T14:08:23.104Z,100423.25
2017-11-25T14:10:51.605Z,100428.45
2017-11-25T14:13:23.428Z,100428.55
2017-11-25T14:15:52.113Z,100423.95
2017-11-25T14:18:20.792Z,100426.13
2017-11-25T14:20:49.520Z,100432.14
2017-11-25T14:23:18.329Z,100428.84
2017-11-25T14:25:47.051Z,100440.33
2017-11-25T14:28:15.721Z,100438.73
2017-11-25T14:30:44.386Z,100442.19
2017-11-25T14:33:13.217Z,100447.36
2017-11-25T14:35:41.972Z,100441.98
2017-11-25T14:38:10.712Z,100444.63
2017-11-25T14:40:39.364Z,100440.46
2017-11-25T14:43:08.346Z,100439.70
2017-11-25T14:45:37.113Z,100443.19
2017-11-25T14:48:05.797Z,100444.50
2017-11-25T14:50:34.493Z,100442.47
2017-11-25T14:53:03.326Z,100440.49
2017-11-25T14:55:32.526Z,100438.00
2017-11-25T14:58:01.226Z,100438.09
2017-11-25T15:00:29.700Z,100446.23
2017-11-25T15:02:58.085Z,100449.34
2017-11-25T15:05:27.009Z,100442.20
2017-11-25T15:07:55.703Z,100444.42
2017-11-25T15:10:24.388Z,100447.43
2017-11-25T15:12:53.300Z,100445.81
2017-11-25T15:15:21.796Z,100442.48
2017-11-25T15:17:50.507Z,100434.89
2017-11-25T15:20:19.190Z,100429.91
2017-11-25T15:22:47.600Z,100430.41
2017-11-25T15:25:16.273Z,100434.70
2017-11-25T15:27:44.926Z,100437.25
2017-11-25T15:30:13.500Z,100441.61
2017-11-25T15:32:42.250Z,100443.36
2017-11-25T15:35:10.929Z,100442.21
2017-11-25T15:37:39.477Z,100441.44
2017-11-25T15:40:08.272Z,100444.05
2017-11-25T15:42:36.815Z,100450.92
2017-11-25T15:45:05.334Z,100447.63
2017-11-25T15:47:34.189Z,100454.52
2017-11-25T15:50:02.993Z,100458.45
2017-11-25T15:52:31.662Z,100455.53
2017-11-25T15:55:00.397Z,100456.03
2017-11-25T15:57:28.765Z,100455.29
2017-11-25T15:59:57.915Z,100456.67
2017-11-25T16:02:27.071Z,100463.54
2017-11-25T16:04:55.726Z,100459.75
2017-11-25T16:07:24.397Z,100465.83
2017-11-25T16:09:57.049Z,100465.90
2017-11-25T16:12:29.405Z,100462.59
2017-11-25T16:15:01.328Z,100464.78
2017-11-25T16:17:33.290Z,100466.12
2017-11-25T16:20:05.696Z,100466.59
2017-11-25T16:22:37.438Z,100472.19
2017-11-25T16:25:11.695Z,100473.53
2017-11-25T16:27:41.273Z,100471.48
2017-11-25T16:30:17.137Z,100479.58
2017-11-25T16:32:50.564Z,100481.37
2017-11-25T16:35:23.839Z,100485.66
2017-11-25T16:37:57.583Z,100487.42
2017-11-25T16:40:34.086Z,100496.37
2017-11-25T16:43:07.609Z,100496.03
2017-11-25T16:45:40.349Z,100503.73
2017-11-25T16:48:23.392Z,100510.60
2017-11-25T16:51:00.632Z,100512.69
2017-11-25T16:53:41.171Z,100513.25
2017-11-25T16:56:17.280Z,100523.05
2017-11-25T16:58:57.261Z,100521.44
2017-11-25T17:01:30.282Z,100524.02
2017-11-25T17:04:11.678Z,100532.08
2017-11-25T17:06:53.058Z,100524.93
2017-11-25T17:09:26.500Z,100527.13
2017-11-25T17:11:59.527Z,100525.88
2017-11-25T17:14:32.520Z,100530.13
2017-11-25T17:17:07.111Z,100530.62
2017-11-25T17:19:39.455Z,100533.23
2017-11-25T17:22:11.811Z,100536.23
2017-11-25T17:24:44.701Z,100540.95
2017-11-25T17:27:17.201Z,100539.25
2017-11-25T17:29:50.885Z,100538.41
2017-11-25T17:32:23.158Z,100535.87
2017-11-25T17:34:56.483Z,100536.34
2017-11-25T17:37:29.564Z,100541.42
2017-11-25T17:39:58.454Z,100542.73
2017-11-25T17:42:27.149Z,100550.38
2017-11-25T17:44:55.838Z,100549.13
2017-11-25T17:47:24.520Z,100556.36
2017-11-25T17:49:53.167Z,100553.88
2017-11-25T17:52:21.861Z,100558.09
2017-11-25T17:54:50.573Z,100557.70
2017-11-25T17:57:19.352Z,100564.05
2017-11-25T17:59:47.990Z,100558.16
2017-11-25T18:02:16.646Z,100563.23
2017-11-25T18:04:45.347Z,100561.19
2017-11-25T18:07:13.988Z,100563.33
2017-11-25T18:09:42.628Z,100568.85
2017-11-25T18:12:11.356Z,100564.64
2017-11-25T18:14:40.005Z,100568.91
2017-11-25T18:17:08.717Z,100570.17
2017-11-25T18:19:37.406Z,100568.07
2017-11-25T18:22:07.189Z,100572.26
2017-11-25T18:24:35.902Z,100566.80
2017-11-25T18:27:04.561Z,100573.13
2017-11-25T18:29:33.317Z,100576.06
2017-11-25T18:32:01.969Z,100576.06
2017-11-25T18:34:30.702Z,100582.77
2017-11-25T18:36:59.532Z,100585.26
2017-11-25T18:39:28.176Z,100584.42
2017-11-25T18:41:56.880Z,100590.31
2017-11-25T18:44:25.589Z,100592.00
2017-11-25T18:46:54.213Z,100596.19
2017-11-25T18:49:22.857Z,100596.16
2017-11-25T18:51:51.673Z,100596.61
2017-11-25T18:54:20.356Z,100595.75
2017-11-25T18:56:49.029Z,100593.59
2017-11-25T18:59:17.753Z,100595.23
2017-11-25T19:01:46.613Z,100606.23
2017-11-25T19:04:15.255Z,100608.32
2017-11-25T19:06:43.941Z,100602.84
2017-11-25T19:09:12.462Z,100609.14
2017-11-25T19:11:41.031Z,100612.93
2017-11-25T19:14:09.568Z,100608.69
2017-11-25T19:16:38.280Z,100614.20
2017-11-25T19:19:06.981Z,100621.38
2017-11-25T19:21:36.314Z,100615.03
2017-11-25T19:24:05.013Z,100623.48
2017-11-25T19:26:33.670Z,100620.53
2017-11-25T19:29:02.404Z,100630.70
2017-11-25T19:31:32.713Z,100627.31
2017-11-25T19:34:01.363Z,100628.58
2017-11-25T19:36:30.035Z,100624.78
2017-11-25T19:39:15.384Z,100629.03
2017-11-25T19:41:44.081Z,100633.66
2017-11-25T19:44:12.585Z,100639.19
2017-11-25T19:46:41.101Z,100642.53
2017-11-25T19:49:09.913Z,100642.14
2017-11-25T19:51:38.653Z,100647.21
2017-11-25T19:54:07.322Z,100648.47
2017-11-25T19:56:35.965Z,100647.18
2017-11-25T19:59:04.701Z,100645.95
2017-11-25T20:01:35.133Z,100651.02
2017-11-25T20:04:03.772Z,100655.69
2017-11-25T20:06:32.524Z,100659.03
2017-11-25T20:09:01.182Z,100653.98
2017-11-25T20:11:29.866Z,100664.97
2017-11-25T20:13:58.558Z,100664.13
2017-11-25T20:16:27.225Z,100665.38
2017-11-25T20:18:55.942Z,100662.45
2017-11-25T20:21:24.633Z,100671.75
2017-11-25T20:23:53.384Z,100673.83
2017-11-25T20:26:22.027Z,100672.55
2017-11-25T20:28:50.684Z,100674.67
2017-11-25T20:31:19.377Z,100676.75
2017-11-25T20:33:48.126Z,100684.37
2017-11-25T20:36:16.787Z,100683.53
2017-11-25T20:38:45.435Z,100683.12
2017-11-25T20:41:14.123Z,100684.80
2017-11-25T20:43:42.814Z,100684.80
2017-11-25T20:46:11.492Z,100692.86
2017-11-25T20:48:40.144Z,100687.34
2017-11-25T20:51:09.974Z,100684.39
2017-11-25T20:53:40.749Z,100690.33
2017-11-25T20:56:09.356Z,100697.94
2017-11-25T20:58:38.090Z,100697.95
2017-11-25T21:01:06.780Z,100692.47
2017-11-25T21:03:35.432Z,100696.34
2017-11-25T21:06:04.146Z,100695.09
2017-11-25T21:08:32.804Z,100693.84
2017-11-25T21:11:01.509Z,100695.58
2017-11-25T21:13:30.170Z,100685.44
2017-11-25T21:15:58.875Z,100692.67
2017-11-25T21:18:27.508Z,100695.66
2017-11-25T21:20:56.223Z,100695.25
2017-11-25T21:23:24.852Z,100701.66
2017-11-25T21:25:53.576Z,100693.65
2017-11-25T21:28:22.299Z,100694.95
2017-11-25T21:30:50.935Z,100693.68
2017-11-25T21:33:19.723Z,100693.28
2017-11-25T21:35:48.388Z,100700.44
2017-11-25T21:38:17.130Z,100704.73
2017-11-25T21:40:45.694Z,100712.37
2017-11-25T21:43:14.356Z,100710.70
2017-11-25T21:45:43.006Z,100718.31
2017-11-25T21:48:11.706Z,100714.97
2017-11-25T21:50:40.417Z,100715.80
2017-11-25T21:53:09.049Z,100715.37
2017-11-25T21:55:42.959Z,100717.91
2017-11-25T21:58:11.821Z,100715.80
2017-11-25T22:00:40.477Z,100722.52
2017-11-25T22:03:09.868Z,100717.46
2017-11-25T22:05:38.541Z,100706.45
2017-11-25T22:08:07.223Z,100703.46
2017-11-25T22:10:35.898Z,100706.41
2017-11-25T22:13:04.532Z,100703.83
2017-11-25T22:15:33.222Z,100709.30
2017-11-25T22:18:01.845Z,100713.11
2017-11-25T22:20:30.540Z,100715.23
2017-11-25T22:22:59.214Z,100722.02
2017-11-25T22:25:27.888Z,100720.71
2017-11-25T22:27:56.548Z,100725.38
2017-11-25T22:30:25.252Z,100725.78
2017-11-25T22:32:53.947Z,100723.68
2017-11-25T22:35:22.601Z,100731.74
2017-11-25T22:37:51.400Z,100727.05
2017-11-25T22:40:19.916Z,100729.19
2017-11-25T22:42:49.555Z,100731.33
2017-11-25T22:45:18.110Z,100726.66
2017-11-25T22:47:46.692Z,100730.88
2017-11-25T22:50:15.250Z,100728.37
2017-11-25T22:52:48.502Z,100738.53
2017-11-25T22:55:18.462Z,100737.66
2017-11-25T22:58:00.634Z,100735.55
2017-11-25T23:00:43.458Z,100732.20
2017-11-25T23:03:31.273Z,100732.19
2017-11-25T23:06:20.189Z,100729.69
2017-11-25T23:09:05.993Z,100732.66
2017-11-25T23:11:51.881Z,100737.33
2017-11-25T23:14:38.005Z,100741.16
2017-11-25T23:17:11.819Z,100740.31
2017-11-25T23:19:56.988Z,100740.75
2017-11-25T23:22:41.809Z,100733.98
2017-11-25T23:25:11.525Z,100735.25
2017-11-25T23:27:40.247Z,100738.23
2017-11-25T23:30:08.920Z,100740.36
2017-11-25T23:32:38.199Z,100735.72
2017-11-25T23:35:06.835Z,100741.22
2017-11-25T23:37:35.508Z,100740.00
2017-11-25T23:40:04.147Z,100742.52
2017-11-25T23:42:32.864Z,100734.94
2017-11-25T23:45:01.621Z,100739.17
2017-11-25T23:47:30.298Z,100735.40
2017-11-25T23:49:58.972Z,100740.92
2017-11-25T23:52:27.603Z,100743.46
2017-11-25T23:54:56.333Z,100738.40
2017-11-25T23:57:24.981Z,100738.45
2017-11-25T23:59:53.693Z,100739.73
